Time;durP1;ratioP1;P1;durP2;ratioP2;P2;SDS_P1;SDS_P2;PMS_P1;PMS_P2;Temp;Humidity;BMP_temperature;BMP_pressure;BME280_temperature;BME280_humidity;BME280_pressure;Samples;Min_cycle;Max_cycle;Signal;HPM_P1;HPM_P2
2023/07/26 00:01:34;;;;;;;1.95;1.23;;;;;;;-146.27;76.65;82562.97;5071556;28;20021;-70
2023/07/26 00:03:59;;;;;;;3.33;1.30;;;;;;;-146.27;76.77;82593.09;5071303;28;20033;-70
2023/07/26 00:06:25;;;;;;;5.18;1.20;;;;;;;-146.27;76.83;82571.00;5071441;28;20389;-69
2023/07/26 00:08:51;;;;;;;3.53;0.93;;;;;;;-146.27;76.99;82573.00;5071452;28;20034;-69
2023/07/26 00:11:17;;;;;;;4.60;1.52;;;;;;;-146.27;77.32;82593.09;5071238;28;20012;-69
2023/07/26 00:13:43;;;;;;;1.67;1.27;;;;;;;-146.27;77.42;82589.09;5070964;28;20043;-69
2023/07/26 00:16:08;;;;;;;1.70;1.20;;;;;;;-146.27;77.99;82599.13;5071006;28;20446;-70
2023/07/26 00:18:33;;;;;;;3.45;1.75;;;;;;;-146.27;77.92;82625.25;5071399;28;20101;-70
2023/07/26 00:20:59;;;;;;;3.38;1.40;;;;;;;-146.27;78.21;82677.47;5071076;28;20090;-70
2023/07/26 00:23:25;;;;;;;3.15;1.30;;;;;;;-146.27;78.19;82645.34;5070988;28;20031;-70
2023/07/26 00:25:51;;;;;;;2.25;1.40;;;;;;;-146.27;78.71;82677.47;5071085;28;20052;-70
2023/07/26 00:28:16;;;;;;;2.58;1.05;;;;;;;-146.27;78.91;82669.44;5070817;28;20052;-70
2023/07/26 00:30:41;;;;;;;1.77;1.27;;;;;;;-146.27;78.88;82683.50;5070918;28;20484;-71
2023/07/26 00:33:07;;;;;;;3.45;1.23;;;;;;;-146.27;78.88;82717.66;5070933;28;20027;-70
2023/07/26 00:35:39;;;;;;;3.00;1.90;;;;;;;-146.27;79.06;82697.56;5071009;28;20535;-70
2023/07/26 00:38:04;;;;;;;3.17;1.30;;;;;;;-146.27;79.28;82685.50;5070866;28;20093;-70
2023/07/26 00:40:29;;;;;;;2.40;1.42;;;;;;;-146.27;79.61;82689.53;5070848;28;20046;-70
2023/07/26 00:42:55;;;;;;;3.00;1.58;;;;;;;-146.27;79.51;82715.66;5069590;28;20024;-71
2023/07/26 00:45:20;;;;;;;2.22;1.25;;;;;;;-146.27;79.77;82721.69;5070940;28;20024;-70
2023/07/26 00:47:46;;;;;;;2.33;1.38;;;;;;;-146.27;79.83;82773.91;5070236;28;20028;-70
2023/07/26 00:50:12;;;;;;;4.20;1.40;;;;;;;-146.27;80.02;82691.53;5070621;28;20024;-70
2023/07/26 00:52:38;;;;;;;3.20;1.20;;;;;;;-146.27;79.83;82767.88;5070470;28;20020;-71
2023/07/26 00:55:04;;;;;;;2.03;1.45;;;;;;;-146.27;80.36;82745.78;5069834;28;20045;-70
2023/07/26 00:57:31;;;;;;;3.40;1.40;;;;;;;-146.27;80.28;82747.78;5070274;28;20107;-70
2023/07/26 00:59:57;;;;;;;2.10;1.15;;;;;;;-146.27;80.68;82796.00;5070436;28;20112;-70
2023/07/26 01:02:22;;;;;;;4.90;1.42;;;;;;;-146.27;80.81;82733.72;5070487;28;20468;-70
2023/07/26 01:04:48;;;;;;;2.83;1.15;;;;;;;-146.27;81.60;82755.84;5070963;28;20455;-70
2023/07/26 01:07:22;;;;;;;4.38;1.83;;;;;;;-146.27;81.41;82721.69;5070577;28;20103;-70
2023/07/26 01:10:03;;;;;;;3.28;1.40;;;;;;;-146.27;81.27;82773.91;5070260;28;20504;-71
2023/07/26 01:12:39;;;;;;;2.97;1.00;;;;;;;-146.27;81.35;82761.84;5070114;28;20031;-70
2023/07/26 01:15:07;;;;;;;4.30;1.30;;;;;;;-146.27;82.14;82785.97;5070449;28;20170;-69
2023/07/26 01:17:33;;;;;;;1.58;1.20;;;;;;;-146.27;82.50;82789.97;5070541;28;20396;-70
2023/07/26 01:19:58;;;;;;;1.80;1.30;;;;;;;-146.27;82.25;82745.78;5070311;28;20040;-70
2023/07/26 01:22:24;;;;;;;4.55;1.77;;;;;;;-146.27;82.30;82802.03;5070408;28;20024;-70
2023/07/26 01:24:49;;;;;;;6.07;1.73;;;;;;;-146.27;82.20;82775.91;5070662;28;20025;-70
2023/07/26 01:27:14;;;;;;;2.50;1.50;;;;;;;-146.27;82.36;82761.84;5069454;28;20419;-70
2023/07/26 01:29:40;;;;;;;3.65;1.45;;;;;;;-146.27;82.63;82753.81;5070105;28;20020;-69
2023/07/26 01:32:07;;;;;;;3.35;1.20;;;;;;;-146.27;81.49;82741.78;5069796;28;20117;-70
2023/07/26 01:34:34;;;;;;;2.58;1.58;;;;;;;-146.27;82.08;82769.91;5069926;28;20047;-69
2023/07/26 01:37:00;;;;;;;2.53;1.60;;;;;;;-146.27;82.63;82802.03;5069076;28;20024;-69
2023/07/26 01:39:27;;;;;;;1.92;1.40;;;;;;;-146.27;82.58;82783.97;5070201;28;20376;-69
2023/07/26 01:41:53;;;;;;;3.38;1.70;;;;;;;-146.27;82.70;82753.81;5068382;28;20025;-70
2023/07/26 01:44:18;;;;;;;3.60;1.40;;;;;;;-146.27;82.40;82769.91;5069901;28;20077;-70
2023/07/26 01:46:44;;;;;;;4.45;1.60;;;;;;;-146.27;82.32;82828.16;5069654;28;20029;-70
2023/07/26 01:49:09;;;;;;;3.42;1.42;;;;;;;-146.27;83.13;82771.91;5070157;28;20020;-70
2023/07/26 01:51:35;;;;;;;2.08;1.58;;;;;;;-146.27;82.63;82792.00;5069778;28;20027;-70
2023/07/26 01:54:00;;;;;;;1.58;1.38;;;;;;;-146.27;83.04;82828.16;5069079;28;20052;-70
2023/07/26 01:56:25;;;;;;;3.97;1.60;;;;;;;-146.27;83.03;82826.16;5069820;28;20021;-70
2023/07/26 01:58:51;;;;;;;2.53;1.40;;;;;;;-146.27;83.04;82814.09;5069726;28;20420;-70
2023/07/26 02:01:16;;;;;;;3.72;1.40;;;;;;;-146.27;83.29;82798.03;5069735;28;20024;-70
2023/07/26 02:03:41;;;;;;;3.05;1.40;;;;;;;-146.27;83.42;82866.31;5069395;28;20099;-70
2023/07/26 02:06:07;;;;;;;2.88;1.77;;;;;;;-146.27;83.23;82824.13;5069832;28;20139;-69
2023/07/26 02:08:32;;;;;;;4.97;1.42;;;;;;;-146.27;83.88;82836.19;5073699;28;20068;-70
2023/07/26 02:10:57;;;;;;;5.43;1.88;;;;;;;-146.27;83.62;82820.13;5072333;28;20020;-70
2023/07/26 02:13:23;;;;;;;4.65;1.88;;;;;;;-146.27;84.40;82802.03;5073165;28;20052;-70
2023/07/26 02:15:49;;;;;;;5.35;1.90;;;;;;;-146.27;83.56;82753.81;5071872;28;20126;-69
2023/07/26 02:18:15;;;;;;;3.55;1.80;;;;;;;-146.27;83.75;82856.28;5073629;28;20028;-70
2023/07/26 02:20:40;;;;;;;4.47;1.83;;;;;;;-146.27;83.92;82850.25;5073346;28;20458;-70
2023/07/26 02:23:05;;;;;;;2.42;1.75;;;;;;;-146.27;84.02;82794.00;5073337;28;20031;-70
2023/07/26 02:25:31;;;;;;;5.20;2.00;;;;;;;-146.27;83.50;82834.19;5073162;28;20473;-69
2023/07/26 02:27:56;;;;;;;3.45;1.70;;;;;;;-146.27;84.30;82880.41;5073334;28;20036;-70
2023/07/26 02:30:22;;;;;;;3.45;1.50;;;;;;;-146.27;84.65;82840.22;5073225;28;20484;-70
2023/07/26 02:32:47;;;;;;;2.78;1.75;;;;;;;-146.27;84.22;82860.31;5073115;28;20021;-70
2023/07/26 02:35:13;;;;;;;2.78;1.73;;;;;;;-146.27;84.53;82850.25;5071641;28;20028;-70
2023/07/26 02:37:38;;;;;;;4.57;1.98;;;;;;;-146.27;84.03;82890.44;5073008;28;20033;-70
2023/07/26 02:40:04;;;;;;;2.55;1.70;;;;;;;-146.27;84.22;82826.16;5072914;28;20016;-73
2023/07/26 02:42:29;;;;;;;4.30;2.45;;;;;;;-146.27;84.74;82842.22;5072945;28;20025;-70
2023/07/26 02:44:55;;;;;;;3.95;2.00;;;;;;;-146.27;83.72;82812.09;5071596;28;20008;-70
2023/07/26 02:47:20;;;;;;;3.78;3.38;;;;;;;-146.27;83.96;82818.13;5073063;28;20035;-70
2023/07/26 02:49:46;;;;;;;4.28;2.60;;;;;;;-146.27;83.57;82802.03;5072656;28;20036;-70
2023/07/26 02:52:12;;;;;;;3.03;2.53;;;;;;;-146.27;84.73;82810.06;5072824;28;20029;-69
2023/07/26 02:54:37;;;;;;;2.30;2.08;;;;;;;-146.27;84.57;82783.97;5072739;28;20399;-70
2023/07/26 02:57:03;;;;;;;5.43;2.22;;;;;;;-146.27;84.75;82798.03;5072784;28;20077;-70
2023/07/26 02:59:28;;;;;;;3.97;2.30;;;;;;;-146.27;83.58;82802.03;5072955;28;20488;-70
2023/07/26 03:01:54;;;;;;;4.28;2.67;;;;;;;-146.27;83.97;82749.81;5072677;28;20639;-69
2023/07/26 03:04:19;;;;;;;3.92;2.00;;;;;;;-146.27;83.56;82763.88;5072783;28;20035;-70
2023/07/26 03:06:46;;;;;;;7.10;2.13;;;;;;;-146.27;83.35;82755.84;5073016;28;20048;-70
2023/07/26 03:09:11;;;;;;;6.68;2.38;;;;;;;-146.27;82.85;82751.81;5071412;28;20037;-70
2023/07/26 03:11:36;;;;;;;3.65;2.38;;;;;;;-146.27;83.06;82717.66;5072521;28;20039;-70
2023/07/26 03:14:02;;;;;;;3.85;2.10;;;;;;;-146.27;83.91;82737.75;5070757;28;20119;-69
2023/07/26 03:16:27;;;;;;;3.60;2.10;;;;;;;-146.27;83.20;82717.66;5072361;28;20541;-69
2023/07/26 03:18:53;;;;;;;6.15;2.17;;;;;;;-146.27;83.59;82729.72;5071140;28;20032;-69
2023/07/26 03:21:18;;;;;;;3.85;2.25;;;;;;;-146.27;83.63;82709.63;5072198;28;20021;-69
2023/07/26 03:23:43;;;;;;;6.07;2.42;;;;;;;-146.27;83.15;82649.34;5072202;28;20024;-70
2023/07/26 03:26:09;;;;;;;7.90;2.28;;;;;;;-146.27;82.97;82693.56;5071147;28;20028;-70
2023/07/26 03:28:34;;;;;;;5.55;2.30;;;;;;;-146.27;82.79;82679.50;5072329;28;20031;-70
2023/07/26 03:31:00;;;;;;;5.38;2.70;;;;;;;-146.27;82.36;82637.31;5072016;28;20054;-69
2023/07/26 03:33:26;;;;;;;3.47;1.90;;;;;;;-146.27;83.26;82657.41;5071935;28;20055;-68
2023/07/26 03:35:51;;;;;;;2.47;1.98;;;;;;;-146.27;82.41;82649.34;5070702;28;20087;-68
2023/07/26 03:38:17;;;;;;;3.13;2.05;;;;;;;-146.27;82.18;82717.66;5072037;28;20050;-69
2023/07/26 03:40:42;;;;;;;3.75;2.10;;;;;;;-146.27;81.66;82621.22;5072005;28;20376;-69
2023/07/26 03:43:08;;;;;;;4.75;2.13;;;;;;;-146.27;82.15;82629.28;5071886;28;20236;-68
2023/07/26 03:45:33;;;;;;;3.10;2.10;;;;;;;-146.27;81.74;82663.41;5070271;28;20032;-69
2023/07/26 03:47:59;;;;;;;2.97;2.05;;;;;;;-146.27;82.20;82635.28;5072100;28;20060;-69
2023/07/26 03:50:25;;;;;;;3.10;2.15;;;;;;;-146.27;81.93;82621.22;5071861;28;20442;-69
2023/07/26 03:52:51;;;;;;;6.55;2.22;;;;;;;-146.27;81.92;82645.34;5071723;28;20029;-70
2023/07/26 03:55:16;;;;;;;4.88;2.10;;;;;;;-146.27;81.24;82625.25;5072150;28;20028;-70
2023/07/26 03:57:42;;;;;;;2.80;1.80;;;;;;;-146.27;81.51;82641.31;5071612;28;20161;-70
2023/07/26 04:00:08;;;;;;;6.18;2.33;;;;;;;-146.27;81.26;82627.25;5071432;28;20029;-70
2023/07/26 04:02:34;;;;;;;2.90;1.77;;;;;;;-146.27;80.59;82615.22;5071383;28;20071;-70
2023/07/26 04:05:00;;;;;;;4.63;2.13;;;;;;;-146.27;80.08;82605.16;5070804;28;21265;-72
2023/07/26 04:07:25;;;;;;;5.85;2.15;;;;;;;-146.27;80.58;82597.13;5070812;28;20468;-70
2023/07/26 04:09:51;;;;;;;4.65;1.92;;;;;;;-146.27;80.31;82591.09;5071324;28;20718;-68
2023/07/26 04:12:16;;;;;;;3.97;2.28;;;;;;;-146.27;80.51;82569.00;5071025;28;20039;-70
2023/07/26 04:14:41;;;;;;;3.42;2.30;;;;;;;-146.27;79.94;82593.09;5070832;28;20041;-70
2023/07/26 04:17:07;;;;;;;7.18;2.30;;;;;;;-146.27;79.92;82593.09;5071252;28;20059;-70
2023/07/26 04:19:33;;;;;;;5.53;2.17;;;;;;;-146.27;79.84;82558.97;5071238;28;20020;-70
2023/07/26 04:21:58;;;;;;;3.03;2.30;;;;;;;-146.27;79.99;82585.06;5071086;28;20020;-70
2023/07/26 04:24:24;;;;;;;4.45;2.42;;;;;;;-146.27;79.83;82581.06;5071022;28;20025;-70
2023/07/26 04:26:50;;;;;;;4.53;2.25;;;;;;;-146.27;79.94;82599.13;5070847;28;20541;-70
2023/07/26 04:29:15;;;;;;;4.97;2.25;;;;;;;-146.27;80.21;82615.22;5070637;28;20131;-71
2023/07/26 04:31:40;;;;;;;3.75;2.35;;;;;;;-146.27;81.92;82583.06;5070742;28;20170;-70
2023/07/26 04:34:06;;;;;;;5.07;2.38;;;;;;;-146.27;82.45;82585.06;5070764;28;20480;-70
2023/07/26 04:36:31;;;;;;;4.43;2.50;;;;;;;-146.27;82.35;82585.06;5069619;28;20029;-70
2023/07/26 04:38:56;;;;;;;4.93;2.67;;;;;;;-146.27;81.97;82536.84;5070697;28;20418;-70
2023/07/26 04:41:22;;;;;;;4.45;2.50;;;;;;;-146.27;82.34;82510.75;5070571;28;20029;-69
2023/07/26 04:43:47;;;;;;;4.20;2.15;;;;;;;-146.27;82.39;82554.94;5070660;28;20017;-71
2023/07/26 04:46:13;;;;;;;5.93;2.72;;;;;;;-146.27;81.92;82536.84;5070566;28;20086;-71
2023/07/26 04:48:38;;;;;;;7.43;2.65;;;;;;;-146.27;82.25;82532.84;5069375;28;20020;-70
2023/07/26 04:51:03;;;;;;;5.03;2.78;;;;;;;-146.27;81.26;82556.94;5070475;28;20384;-70
2023/07/26 04:53:29;;;;;;;5.97;2.42;;;;;;;-146.27;81.59;82536.84;5070457;28;20024;-71
2023/07/26 04:55:55;;;;;;;3.95;2.28;;;;;;;-146.27;82.42;82542.88;5070091;28;20043;-70
2023/07/26 04:58:20;;;;;;;4.18;2.38;;;;;;;-146.27;82.38;82516.78;5070420;28;20031;-70
2023/07/26 05:00:46;;;;;;;3.42;2.45;;;;;;;-146.27;82.18;82470.56;5070050;28;20099;-72
2023/07/26 05:03:12;;;;;;;4.07;2.58;;;;;;;-146.27;82.28;82494.66;5070039;28;20036;-70
2023/07/26 05:05:38;;;;;;;6.25;3.63;;;;;;;-146.27;82.32;82482.63;5068847;28;20020;-71
2023/07/26 05:08:05;;;;;;;4.93;2.88;;;;;;;-146.27;81.41;82508.72;5070412;28;20038;-70
2023/07/26 05:10:30;;;;;;;6.22;3.53;;;;;;;-146.27;81.75;82484.63;5070424;28;20384;-70
2023/07/26 05:12:57;;;;;;;4.85;3.00;;;;;;;-146.27;82.93;82484.63;5069760;28;20045;-71
2023/07/26 05:15:22;;;;;;;6.30;3.17;;;;;;;-146.27;83.82;82484.63;5069981;28;20099;-70
2023/07/26 05:17:49;;;;;;;7.68;3.97;;;;;;;-146.27;83.91;82490.66;5070021;28;20107;-70
2023/07/26 05:20:14;;;;;;;6.82;3.13;;;;;;;-146.27;85.25;82492.66;5070190;28;20480;-70
2023/07/26 05:22:39;;;;;;;5.32;3.50;;;;;;;-146.27;85.60;82571.00;5069981;28;20183;-70
2023/07/26 05:25:06;;;;;;;4.47;3.35;;;;;;;-146.27;86.40;82548.91;5069669;28;20040;-70
2023/07/26 05:27:31;;;;;;;5.88;3.60;;;;;;;-146.27;87.84;82560.97;5069564;28;20043;-70
2023/07/26 05:29:59;;;;;;;6.15;3.35;;;;;;;-146.27;87.73;82540.88;5069978;28;20564;-70
2023/07/26 05:32:25;;;;;;;5.25;3.40;;;;;;;-146.27;88.20;82522.78;5069425;28;20024;-69
2023/07/26 05:34:54;;;;;;;11.85;3.42;;;;;;;-146.27;90.00;82530.84;5069764;28;20455;-70
2023/07/26 05:37:20;;;;;;;10.48;4.60;;;;;;;-146.27;91.40;82530.84;5070000;28;20021;-70
2023/07/26 05:39:46;;;;;;;7.00;3.85;;;;;;;-146.27;90.96;82526.81;5069839;28;20024;-70
2023/07/26 05:42:11;;;;;;;6.95;3.70;;;;;;;-146.27;91.31;82536.84;5074146;28;20020;-70
2023/07/26 05:44:38;;;;;;;9.27;3.83;;;;;;;-146.27;91.96;82504.72;5076371;28;20040;-70
2023/07/26 05:47:04;;;;;;;8.77;4.60;;;;;;;-146.27;92.18;82524.81;5076572;28;20484;-70
2023/07/26 05:49:29;;;;;;;12.05;4.20;;;;;;;-146.27;92.29;82506.72;5076559;28;20048;-70
2023/07/26 05:51:55;;;;;;;8.98;4.70;;;;;;;-146.27;92.20;82571.00;5076601;28;20055;-70
2023/07/26 05:54:20;;;;;;;11.00;4.97;;;;;;;-146.27;92.53;82542.88;5076697;28;20073;-70
2023/07/26 05:56:46;;;;;;;11.52;5.63;;;;;;;-146.27;93.59;82530.84;5076146;28;20028;-70
2023/07/26 05:59:11;;;;;;;8.65;5.03;;;;;;;-146.27;93.11;82560.97;5076521;28;20024;-70
2023/07/26 06:01:36;;;;;;;7.35;5.22;;;;;;;-146.27;93.38;82569.00;5076647;28;20059;-70
2023/07/26 06:04:02;;;;;;;11.80;5.65;;;;;;;-146.27;92.77;82585.06;5076222;28;20104;-70
2023/07/26 06:06:27;;;;;;;14.23;5.13;;;;;;;-146.27;92.13;82587.09;5076181;28;20055;-70
2023/07/26 06:08:53;;;;;;;12.02;5.50;;;;;;;-146.27;93.20;82560.97;5076264;28;20428;-70
2023/07/26 06:11:19;;;;;;;12.43;5.70;;;;;;;-146.27;93.44;82577.03;5074634;28;20032;-69
2023/07/26 06:13:44;;;;;;;9.93;5.78;;;;;;;-146.27;93.63;82597.13;5074369;28;20051;-69
2023/07/26 06:16:09;;;;;;;8.88;5.18;;;;;;;-146.27;92.55;82567.00;5075919;28;20036;-69
2023/07/26 06:18:35;;;;;;;12.95;5.68;;;;;;;-146.27;92.96;82536.84;5076545;28;20043;-69
2023/07/26 06:21:00;;;;;;;7.32;4.82;;;;;;;-146.27;92.79;82524.81;5076224;28;20039;-69
2023/07/26 06:23:25;;;;;;;9.65;4.75;;;;;;;-146.27;92.84;82516.78;5076312;28;20020;-70
2023/07/26 06:25:51;;;;;;;8.93;4.50;;;;;;;-146.27;91.73;82480.59;5076287;28;20108;-71
2023/07/26 06:28:16;;;;;;;8.23;4.55;;;;;;;-146.27;90.78;82452.47;5076177;28;20081;-70
2023/07/26 06:30:42;;;;;;;8.15;4.47;;;;;;;-146.27;90.15;82434.41;5075933;28;20376;-70
2023/07/26 06:33:07;;;;;;;8.30;4.10;;;;;;;-146.27;90.04;82376.16;5074574;28;20043;-71
2023/07/26 06:35:32;;;;;;;6.25;4.03;;;;;;;-146.27;88.62;82352.03;5074517;28;20016;-70
2023/07/26 06:37:58;;;;;;;5.72;3.53;;;;;;;-146.27;88.02;82386.19;5075816;28;20107;-70
2023/07/26 06:40:23;;;;;;;5.53;2.97;;;;;;;-146.27;85.68;82317.91;5074658;28;20029;-70
2023/07/26 06:42:48;;;;;;;11.55;3.15;;;;;;;-146.27;84.71;82311.88;5075867;28;20095;-70
2023/07/26 06:45:14;;;;;;;6.15;2.95;;;;;;;-146.27;84.58;82287.75;5075601;28;20108;-70
2023/07/26 06:47:39;;;;;;;10.10;2.95;;;;;;;-146.27;83.31;82243.56;5074431;28;20020;-70
2023/07/26 06:50:06;;;;;;;6.75;2.70;;;;;;;-146.27;82.76;82231.53;5076066;28;20052;-69
2023/07/26 06:52:32;;;;;;;7.28;2.72;;;;;;;-146.27;82.79;82215.44;5074902;28;20353;-71
2023/07/26 06:54:57;;;;;;;6.18;2.33;;;;;;;-146.27;82.83;82221.47;5072361;28;20024;-70
2023/07/26 06:57:22;;;;;;;8.75;2.42;;;;;;;-146.27;82.63;82199.38;5071180;28;20024;-70
2023/07/26 06:59:48;;;;;;;6.85;2.45;;;;;;;-146.27;81.75;82207.41;5072593;28;20029;-70
2023/07/26 07:02:13;;;;;;;5.07;2.67;;;;;;;-146.27;82.20;82173.28;5072296;28;20116;-70
2023/07/26 07:04:39;;;;;;;5.78;2.58;;;;;;;-146.27;82.53;82171.25;5072621;28;20021;-70
2023/07/26 07:07:05;;;;;;;6.82;2.72;;;;;;;-146.27;81.62;82183.31;5072561;28;20077;-70
2023/07/26 07:09:30;;;;;;;6.43;2.80;;;;;;;-146.27;80.81;82145.16;5072367;28;20032;-71
2023/07/26 07:11:55;;;;;;;6.22;2.97;;;;;;;-146.27;80.17;82177.28;5072488;28;20039;-70
2023/07/26 07:14:21;;;;;;;9.57;2.90;;;;;;;-146.27;80.41;82195.38;5071942;28;20493;-71
2023/07/26 07:16:46;;;;;;;8.30;2.72;;;;;;;-146.27;80.07;82131.09;5072166;28;20300;-70
2023/07/26 07:19:11;;;;;;;9.02;2.95;;;;;;;-146.27;79.92;82161.22;5071885;28;20039;-70
2023/07/26 07:21:37;;;;;;;6.18;2.63;;;;;;;-146.27;79.38;82147.16;5071024;28;20062;-70
2023/07/26 07:24:04;;;;;;;4.85;2.75;;;;;;;-146.27;78.72;82115.00;5070724;28;20017;-70
2023/07/26 07:26:30;;;;;;;8.20;3.15;;;;;;;-146.27;78.76;82062.78;5072067;28;20028;-71
2023/07/26 07:28:55;;;;;;;11.10;2.83;;;;;;;-146.27;79.07;82074.84;5072220;28;20020;-70
2023/07/26 07:31:20;;;;;;;9.63;3.08;;;;;;;-146.27;77.20;82060.78;5071439;28;20111;-70
2023/07/26 07:33:46;;;;;;;5.63;2.40;;;;;;;-146.27;76.20;82058.78;5071131;28;20032;-70
2023/07/26 07:36:17;;;;;;;5.95;2.78;;;;;;;-146.27;75.16;82058.78;5057557;28;20351;-71
2023/07/26 07:38:44;;;;;;;5.60;2.65;;;;;;;-146.27;74.14;82026.63;5071520;28;20426;-70
2023/07/26 07:41:10;;;;;;;6.32;2.40;;;;;;;-146.27;72.35;82042.69;5071568;28;20380;-71
2023/07/26 07:43:35;;;;;;;6.35;2.60;;;;;;;-146.27;72.41;81968.38;5070236;28;20031;-69
2023/07/26 07:46:00;;;;;;;7.15;2.00;;;;;;;-146.27;71.54;81980.44;5071645;28;20140;-69
2023/07/26 07:48:26;;;;;;;5.90;2.20;;;;;;;-146.27;72.53;81926.22;5071758;28;20028;-69
2023/07/26 07:50:55;;;;;;;3.75;1.90;;;;;;;-146.27;72.61;81918.16;5071166;28;20476;-69
2023/07/26 07:53:20;;;;;;;3.70;1.98;;;;;;;-146.27;71.64;81898.09;5071182;28;20534;-69
2023/07/26 07:55:46;;;;;;;5.45;2.08;;;;;;;-146.27;71.53;81952.31;5071491;28;20054;-69
2023/07/26 07:58:11;;;;;;;5.05;2.25;;;;;;;-146.27;72.04;81940.25;5071300;28;20078;-70
2023/07/26 08:00:36;;;;;;;8.02;2.10;;;;;;;-146.27;71.68;82006.53;5071057;28;20036;-69
2023/07/26 08:03:03;;;;;;;4.72;2.35;;;;;;;-146.27;71.61;82030.66;5071276;28;20368;-71
2023/07/26 08:05:28;;;;;;;2.58;1.83;;;;;;;-146.27;70.98;81948.31;5070780;28;20047;-71
2023/07/26 08:07:54;;;;;;;5.38;2.17;;;;;;;-146.27;69.40;81934.25;5070957;28;20111;-69
2023/07/26 08:10:20;;;;;;;5.35;2.15;;;;;;;-146.27;68.65;81918.16;5070680;28;20492;-70
2023/07/26 08:12:46;;;;;;;4.65;2.15;;;;;;;-146.27;66.72;81922.19;5071479;28;20048;-70
2023/07/26 08:15:12;;;;;;;4.55;2.00;;;;;;;-146.27;67.97;81912.16;5070933;28;20537;-70
2023/07/26 08:17:39;;;;;;;6.40;2.10;;;;;;;-146.27;68.41;81882.00;5070861;28;20060;-71
2023/07/26 08:20:08;;;;;;;4.10;2.10;;;;;;;-146.27;68.57;81873.97;5070075;28;20028;-70
2023/07/26 08:22:34;;;;;;;8.55;2.10;;;;;;;-146.27;67.32;81855.91;5070812;28;20021;-70
2023/07/26 08:24:59;;;;;;;3.80;1.65;;;;;;;-146.27;66.94;81825.78;5070871;28;20506;-69
2023/07/26 08:27:24;;;;;;;5.15;2.20;;;;;;;-146.27;66.89;81841.84;5068920;28;20046;-68
2023/07/26 08:29:50;;;;;;;3.03;1.60;;;;;;;-146.27;64.96;81843.84;5070893;28;20455;-71
2023/07/26 08:32:16;;;;;;;6.78;1.92;;;;;;;-146.27;64.51;81789.63;5070596;28;20361;-70
2023/07/26 08:34:42;;;;;;;7.38;1.90;;;;;;;-146.27;62.62;81803.69;5070680;28;20059;-69
2023/07/26 08:37:09;;;;;;;4.75;1.80;;;;;;;-146.27;64.09;81797.66;5070582;28;20107;-70
2023/07/26 08:39:34;;;;;;;2.40;1.50;;;;;;;-146.27;64.55;81757.50;5070569;28;20082;-69
2023/07/26 08:42:00;;;;;;;2.50;1.75;;;;;;;-146.27;64.32;81721.34;5070269;28;20111;-70
2023/07/26 08:44:25;;;;;;;6.05;2.00;;;;;;;-146.27;63.90;81743.44;5069558;28;20033;-70
2023/07/26 08:46:52;;;;;;;3.35;1.60;;;;;;;-146.27;62.27;81837.81;5070393;28;20044;-70
2023/07/26 08:49:18;;;;;;;3.25;1.83;;;;;;;-146.27;63.33;81781.59;5070384;28;20055;-70
2023/07/26 08:51:45;;;;;;;1.98;1.50;;;;;;;-146.27;60.23;81751.47;5070285;28;20020;-72
2023/07/26 08:54:11;;;;;;;3.65;2.00;;;;;;;-146.27;59.52;81785.59;5070223;28;20097;-71
2023/07/26 08:56:36;;;;;;;8.88;2.47;;;;;;;-146.27;60.02;81759.50;5070278;28;20052;-71
2023/07/26 08:59:02;;;;;;;5.88;2.05;;;;;;;-146.27;60.40;81745.44;5070272;28;20063;-71
2023/07/26 09:01:29;;;;;;;3.28;1.80;;;;;;;-146.27;57.63;81765.53;5070361;28;20032;-71
2023/07/26 09:03:54;;;;;;;4.50;2.00;;;;;;;-146.27;57.69;81689.19;5070524;28;20043;-71
2023/07/26 09:06:19;;;;;;;4.75;1.98;;;;;;;-146.27;58.58;81657.06;5068819;28;20024;-68
2023/07/26 09:08:46;;;;;;;5.05;1.83;;;;;;;-146.27;58.11;81655.06;5070152;28;20491;-70
2023/07/26 09:11:48;;;;;;;2.78;1.77;;;;;;;-146.27;60.65;81608.88;5069615;28;20077;-70
2023/07/26 09:14:13;;;;;;;3.03;1.65;;;;;;;-146.27;59.01;81528.53;5069520;28;20040;-70
2023/07/26 09:16:38;;;;;;;8.75;2.20;;;;;;;-146.27;56.07;81604.84;5068931;28;20081;-71
2023/07/26 09:19:05;;;;;;;4.05;1.70;;;;;;;-146.27;57.15;81554.63;5069583;28;20105;-70
2023/07/26 09:21:33;;;;;;;4.30;2.05;;;;;;;-146.27;57.31;81522.50;5068786;28;20032;-70
2023/07/26 09:23:59;;;;;;;3.40;2.08;;;;;;;-146.27;57.64;81518.50;5069954;28;20021;-69
2023/07/26 09:26:39;;;;;;;6.25;2.10;;;;;;;-146.27;55.96;81572.72;5069534;28;20024;-69
2023/07/26 09:29:10;;;;;;;4.25;2.28;;;;;;;-146.27;56.54;81659.06;5069735;28;20031;-70
2023/07/26 09:31:38;;;;;;;4.22;1.77;;;;;;;-146.27;55.31;81719.31;5069301;28;20036;-70
2023/07/26 09:34:06;;;;;;;5.00;1.85;;;;;;;-146.27;56.04;81681.16;5069408;28;20494;-70
2023/07/26 09:36:44;;;;;;;2.78;2.00;;;;;;;-146.27;56.99;81649.03;5069442;28;20495;-69
2023/07/26 09:39:11;;;;;;;3.50;2.28;;;;;;;-146.27;57.16;81634.97;5068594;28;20043;-70
2023/07/26 09:41:37;;;;;;;4.63;1.80;;;;;;;-146.27;54.52;81651.03;5069654;28;20622;-70
2023/07/26 09:44:05;;;;;;;3.25;2.22;;;;;;;-146.27;54.58;81570.69;5069501;28;20381;-70
2023/07/26 09:46:46;;;;;;;5.70;2.17;;;;;;;-146.27;55.58;81500.41;5067862;28;20392;-69
2023/07/26 09:49:12;;;;;;;5.30;2.20;;;;;;;-146.27;53.40;81534.56;5069646;28;20477;-70
2023/07/26 09:51:39;;;;;;;4.05;2.03;;;;;;;-146.27;54.59;81500.41;5069620;28;20074;-69
2023/07/26 09:54:06;;;;;;;4.97;2.28;;;;;;;-146.27;53.51;81538.56;5069526;28;20054;-70
2023/07/26 09:56:33;;;;;;;5.72;2.50;;;;;;;-146.27;54.08;81474.31;5069542;28;20036;-71
2023/07/26 09:59:00;;;;;;;3.83;2.10;;;;;;;-146.27;52.98;81484.34;5069796;28;20032;-71
2023/07/26 10:01:29;;;;;;;3.40;2.28;;;;;;;-146.27;53.85;81496.41;5069651;28;20034;-70
2023/07/26 10:03:55;;;;;;;3.90;2.28;;;;;;;-146.27;54.28;81444.19;5069366;28;20461;-70
2023/07/26 10:06:23;;;;;;;5.47;2.38;;;;;;;-146.27;55.05;81518.50;5069478;28;20024;-70
2023/07/26 10:08:49;;;;;;;6.15;2.58;;;;;;;-146.27;56.23;81540.56;5069413;28;20032;-70
2023/07/26 10:11:15;;;;;;;3.80;2.28;;;;;;;-146.27;55.44;81580.75;5069288;28;20078;-69
2023/07/26 10:13:43;;;;;;;4.10;1.98;;;;;;;-146.27;53.78;81655.06;5068815;28;20044;-69
2023/07/26 10:16:08;;;;;;;3.83;2.40;;;;;;;-146.27;54.97;81641.00;5069398;28;20067;-71
2023/07/26 10:18:34;;;;;;;4.93;2.30;;;;;;;-146.27;55.00;81520.50;5069396;28;20063;-69
2023/07/26 10:21:02;;;;;;;3.45;2.00;;;;;;;-146.27;53.07;81520.50;5069442;28;20028;-70
2023/07/26 10:23:30;;;;;;;4.85;2.20;;;;;;;-146.27;53.99;81484.34;5068963;28;20029;-69
2023/07/26 10:25:56;;;;;;;5.63;1.95;;;;;;;-146.27;55.00;81424.09;5069156;28;20032;-69
2023/07/26 10:28:24;;;;;;;3.88;2.42;;;;;;;-146.27;54.17;81452.22;5071584;28;20058;-71
2023/07/26 10:30:51;;;;;;;5.65;1.95;;;;;;;-146.27;54.17;81520.50;5072895;28;20032;-71
2023/07/26 10:33:17;;;;;;;6.68;2.30;;;;;;;-146.27;55.55;81624.94;5072927;28;20653;-72
2023/07/26 10:35:43;;;;;;;8.02;2.60;;;;;;;-146.27;55.95;81510.44;5072759;28;20101;-71
2023/07/26 10:38:08;;;;;;;4.25;2.50;;;;;;;-146.27;56.69;81395.97;5072661;28;20040;-70
2023/07/26 10:40:38;;;;;;;3.97;2.00;;;;;;;-146.27;54.64;81315.66;5072827;28;20024;-70
2023/07/26 10:43:21;;;;;;;5.85;2.20;;;;;;;-146.27;53.57;81379.91;5072261;28;20417;-70
2023/07/26 10:45:49;;;;;;;8.10;2.70;;;;;;;-146.27;53.66;81393.97;5072560;28;20101;-70
2023/07/26 10:48:27;;;;;;;4.28;2.15;;;;;;;-146.27;53.80;81436.16;5072532;28;20381;-71
2023/07/26 10:50:59;;;;;;;4.43;2.42;;;;;;;-146.27;54.47;81418.06;5072737;28;20024;-71
2023/07/26 10:53:38;;;;;;;3.97;2.17;;;;;;;-146.27;54.75;81428.09;5072959;28;20495;-71
2023/07/26 10:56:08;;;;;;;6.25;2.40;;;;;;;-146.27;52.47;81397.97;5072642;28;20021;-71
2023/07/26 10:58:33;;;;;;;4.60;2.30;;;;;;;-146.27;53.11;81393.97;5072647;28;20325;-70
2023/07/26 11:01:03;;;;;;;3.65;2.00;;;;;;;-146.27;52.66;81430.13;5072312;28;20024;-70
2023/07/26 11:03:28;;;;;;;4.50;2.30;;;;;;;-146.27;54.24;81444.19;5072590;28;20036;-70
2023/07/26 11:05:55;;;;;;;5.97;2.33;;;;;;;-146.27;53.78;81391.97;5072073;28;20020;-71
2023/07/26 11:08:40;;;;;;;5.10;2.35;;;;;;;-146.27;54.17;81323.69;5072279;28;20668;-71
2023/07/26 11:11:06;;;;;;;5.18;2.47;;;;;;;-146.27;53.29;81291.53;5071906;28;20108;-71
2023/07/26 11:13:32;;;;;;;4.50;2.08;;;;;;;-146.27;51.29;81227.28;5071990;28;20123;-70